Time,TemperatureF,DewpointF,PressureIn,WindDirection,WindDirectionDegrees,WindSpeedMPH,WindSpeedGustMPH,Humidity,HourlyPrecipIn,Conditions,Clouds,dailyrainin,SoftwareType,DateUTC
2013-08-02 00:01:00,67.5,9.1,29.89,South,180,10.5,14.3,1,0.00,,,0.00,WUHU216HW,2013-08-02 05:01:00,
2013-08-02 00:06:00,67.9,9.4,29.89,SSW,203,6.9,13.6,1,0.00,,,0.00,WUHU216HW,2013-08-02 05:06:00,
2013-08-02 00:11:00,68.0,9.5,29.89,SSE,158,8.7,13.6,1,0.00,,,0.00,WUHU216HW,2013-08-02 05:11:00,
2013-08-02 00:16:00,68.4,9.8,29.88,South,180,6.5,15.0,1,0.00,,,0.00,WUHU216HW,2013-08-02 05:16:00,
2013-08-02 00:21:00,68.4,9.8,29.88,SSW,203,5.4,15.0,1,0.00,,,0.00,WUHU216HW,2013-08-02 05:21:00,
2013-08-02 00:27:00,68.6,9.9,29.87,South,180,10.3,11.9,1,0.00,,,0.00,WUHU216HW,2013-08-02 05:27:00,
2013-08-02 00:32:00,68.8,10.1,29.87,SE,135,6.9,14.1,1,0.00,,,0.00,WUHU216HW,2013-08-02 05:32:00,
2013-08-02 00:37:00,68.6,9.9,29.87,SSW,203,4.7,14.1,1,0.00,,,0.00,WUHU216HW,2013-08-02 05:37:00,
2013-08-02 00:42:00,68.6,9.9,29.87,SSE,158,8.5,12.3,1,0.00,,,0.00,WUHU216HW,2013-08-02 05:42:00,
2013-08-02 00:47:00,68.6,9.9,29.87,South,180,8.5,12.3,1,0.00,,,0.00,WUHU216HW,2013-08-02 05:47:00,
2013-08-02 00:52:00,68.6,9.9,29.87,SSE,158,9.2,11.0,1,0.00,,,0.00,WUHU216HW,2013-08-02 05:52:00,
2013-08-02 00:57:00,68.8,10.1,29.87,SSE,158,5.1,16.3,1,0.00,,,0.00,WUHU216HW,2013-08-02 05:57:00,
2013-08-02 01:02:00,68.8,10.1,29.88,SSW,203,11.0,16.3,1,0.00,,,0.00,WUHU216HW,2013-08-02 06:02:00,
2013-08-02 01:07:00,68.4,9.8,29.88,South,180,9.4,12.1,1,0.00,,,0.00,WUHU216HW,2013-08-02 06:07:00,
2013-08-02 01:12:00,68.4,9.8,29.88,SSW,203,10.3,12.1,1,0.00,,,0.00,WUHU216HW,2013-08-02 06:12:00,
2013-08-02 01:17:00,68.4,9.8,29.89,South,180,9.8,12.8,1,0.00,,,0.00,WUHU216HW,2013-08-02 06:17:00,
2013-08-02 01:22:00,68.2,9.6,29.89,South,180,13.9,13.9,1,0.00,,,0.00,WUHU216HW,2013-08-02 06:22:00,
2013-08-02 01:27:00,68.0,9.5,29.89,South,180,11.4,17.7,1,0.00,,,0.00,WUHU216HW,2013-08-02 06:27:00,
2013-08-02 01:32:00,67.9,9.4,29.89,South,180,14.1,17.7,1,0.00,,,0.00,WUHU216HW,2013-08-02 06:32:00,
2013-08-02 01:37:00,67.7,9.3,29.89,South,180,14.5,19.7,1,0.00,,,0.00,WUHU216HW,2013-08-02 06:37:00,
2013-08-02 01:43:00,67.5,9.1,29.90,SSW,203,6.3,19.7,1,0.00,,,0.00,WUHU216HW,2013-08-02 06:43:00,
2013-08-02 01:47:00,67.3,9.0,29.90,South,180,13.6,17.7,1,0.00,,,0.00,WUHU216HW,2013-08-02 06:47:00,
2013-08-02 01:52:00,67.3,9.0,29.90,SSW,203,6.7,13.6,1,0.00,,,0.00,WUHU216HW,2013-08-02 06:52:00,
2013-08-02 01:58:00,67.1,8.8,29.90,SSE,158,5.1,11.6,1,0.00,,,0.00,WUHU216HW,2013-08-02 06:58:00,
2013-08-02 02:03:00,67.0,8.6,29.90,South,180,4.3,11.6,1,0.00,,,0.00,WUHU216HW,2013-08-02 07:03:00,
2013-08-02 02:08:00,66.8,8.6,29.90,South,180,5.1,9.2,1,0.00,,,0.00,WUHU216HW,2013-08-02 07:08:00,
2013-08-02 02:13:00,66.6,8.4,29.89,SSE,158,10.1,10.1,1,0.00,,,0.00,WUHU216HW,2013-08-02 07:13:00,
2013-08-02 02:18:00,66.4,8.3,29.90,SW,225,4.3,10.1,1,0.00,,,0.00,WUHU216HW,2013-08-02 07:18:00,
2013-08-02 02:23:00,66.4,8.3,29.91,SW,225,8.7,9.8,1,0.00,,,0.00,WUHU216HW,2013-08-02 07:23:00,
2013-08-02 02:28:00,66.4,8.3,29.91,South,180,5.4,9.8,1,0.00,,,0.00,WUHU216HW,2013-08-02 07:28:00,
2013-08-02 02:33:00,66.4,8.3,29.91,SSW,203,6.9,8.5,1,0.00,,,0.00,WUHU216HW,2013-08-02 07:33:00,
2013-08-02 02:38:00,66.4,8.3,29.92,SSW,203,5.4,10.3,1,0.00,,,0.00,WUHU216HW,2013-08-02 07:38:00,
2013-08-02 02:43:00,66.4,8.3,29.91,SSW,203,12.1,12.1,1,0.00,,,0.00,WUHU216HW,2013-08-02 07:43:00,
2013-08-02 02:48:00,66.4,8.3,29.91,SW,225,5.1,12.1,1,0.00,,,0.00,WUHU216HW,2013-08-02 07:48:00,
2013-08-02 02:53:00,66.2,8.1,29.89,SSW,203,13.2,13.2,1,0.01,,,0.01,WUHU216HW,2013-08-02 07:53:00,
2013-08-02 02:58:00,66.1,7.9,29.89,SW,225,1.6,13.2,1,0.01,,,0.01,WUHU216HW,2013-08-02 07:58:00,
2013-08-02 03:03:00,65.9,7.8,29.92,NW,315,1.8,10.5,1,0.01,,,0.01,WUHU216HW,2013-08-02 08:03:00,
2013-08-02 03:08:00,65.9,7.8,29.90,South,180,2.5,6.3,1,0.01,,,0.01,WUHU216HW,2013-08-02 08:08:00,
2013-08-02 03:13:00,65.9,7.8,29.90,SW,225,1.8,4.7,1,0.01,,,0.01,WUHU216HW,2013-08-02 08:13:00,
2013-08-02 03:18:00,65.7,7.7,29.90,WSW,248,5.6,5.6,1,0.02,,,0.02,WUHU216HW,2013-08-02 08:18:00,
2013-08-02 03:23:00,65.7,7.7,29.91,WNW,293,6.7,6.7,1,0.02,,,0.02,WUHU216HW,2013-08-02 08:23:00,
2013-08-02 03:28:00,65.7,7.7,29.91,WSW,248,5.1,7.4,1,0.02,,,0.02,WUHU216HW,2013-08-02 08:28:00,
2013-08-02 03:34:00,65.9,7.8,29.91,WSW,248,5.8,7.4,1,0.02,,,0.02,WUHU216HW,2013-08-02 08:34:00,
2013-08-02 03:39:00,65.9,7.8,29.90,West,270,3.4,6.5,1,0.02,,,0.02,WUHU216HW,2013-08-02 08:39:00,
2013-08-02 03:44:00,65.9,7.8,29.89,SW,225,6.7,6.7,1,0.02,,,0.02,WUHU216HW,2013-08-02 08:44:00,
2013-08-02 03:49:00,65.9,7.8,29.87,SSW,203,4.7,9.4,1,0.01,,,0.02,WUHU216HW,2013-08-02 08:49:00,
2013-08-02 03:54:00,65.9,7.8,29.86,WSW,248,6.7,9.4,1,0.01,,,0.02,WUHU216HW,2013-08-02 08:54:00,
2013-08-02 03:59:00,65.9,7.8,29.84,South,180,5.8,6.9,1,0.01,,,0.02,WUHU216HW,2013-08-02 08:59:00,
2013-08-02 04:04:00,65.9,7.8,29.80,SSW,203,6.3,9.2,1,0.01,,,0.02,WUHU216HW,2013-08-02 09:04:00,
2013-08-02 04:09:00,65.9,7.8,29.78,SSW,203,9.8,9.8,1,0.01,,,0.02,WUHU216HW,2013-08-02 09:09:00,
2013-08-02 04:14:00,65.9,7.8,29.76,South,180,19.7,19.7,1,0.00,,,0.02,WUHU216HW,2013-08-02 09:14:00,
2013-08-02 04:19:00,66.1,7.9,29.77,SSE,158,10.7,19.7,1,0.01,,,0.04,WUHU216HW,2013-08-02 09:19:00,
2013-08-02 04:24:00,66.1,7.9,29.80,SSE,158,7.2,12.8,1,0.01,,,0.04,WUHU216HW,2013-08-02 09:24:00,
2013-08-02 04:29:00,66.1,7.9,29.81,SW,225,7.2,13.9,1,0.01,,,0.04,WUHU216HW,2013-08-02 09:29:00,
2013-08-02 04:34:00,65.9,7.8,29.80,SSW,203,5.4,13.9,1,0.01,,,0.04,WUHU216HW,2013-08-02 09:34:00,
2013-08-02 04:39:00,65.9,7.8,29.80,SW,225,6.3,10.1,1,0.01,,,0.04,WUHU216HW,2013-08-02 09:39:00,
2013-08-02 04:44:00,65.9,7.8,29.83,North,0,2.5,10.1,1,0.01,,,0.04,WUHU216HW,2013-08-02 09:44:00,
2013-08-02 04:49:00,65.9,7.8,29.85,NNE,23,7.8,9.8,1,0.01,,,0.04,WUHU216HW,2013-08-02 09:49:00,
2013-08-02 04:54:00,65.7,7.7,29.85,NE,45,4.5,7.8,1,0.01,,,0.04,WUHU216HW,2013-08-02 09:54:00,
2013-08-02 04:59:00,65.7,7.7,29.86,NW,315,1.1,7.6,1,0.01,,,0.04,WUHU216HW,2013-08-02 09:59:00,
2013-08-02 05:04:00,65.5,7.6,29.87,North,0,3.4,6.7,1,0.01,,,0.04,WUHU216HW,2013-08-02 10:04:00,
2013-08-02 05:09:00,65.5,7.6,29.87,NNE,23,0.2,3.4,1,0.01,,,0.04,WUHU216HW,2013-08-02 10:09:00,
2013-08-02 05:14:00,65.3,7.4,29.87,NNE,23,0.7,2.2,1,0.01,,,0.04,WUHU216HW,2013-08-02 10:14:00,
2013-08-02 05:20:00,65.2,7.2,29.86,NNE,23,1.6,2.2,1,0.00,,,0.04,WUHU216HW,2013-08-02 10:20:00,
2013-08-02 05:25:00,64.8,6.9,29.86,NNE,23,0.0,2.2,1,0.00,,,0.04,WUHU216HW,2013-08-02 10:25:00,
2013-08-02 05:30:00,64.4,6.7,29.87,NNE,23,1.6,1.8,1,0.00,,,0.04,WUHU216HW,2013-08-02 10:30:00,
2013-08-02 05:35:00,64.4,6.7,29.87,NNE,23,0.9,1.8,1,0.00,,,0.04,WUHU216HW,2013-08-02 10:35:00,
2013-08-02 05:40:00,64.3,6.6,29.87,NNE,23,0.0,1.6,1,0.00,,,0.04,WUHU216HW,2013-08-02 10:40:00,
2013-08-02 05:45:00,64.1,6.4,29.86,East,90,0.2,0.7,1,0.00,,,0.04,WUHU216HW,2013-08-02 10:45:00,
2013-08-02 05:50:00,63.9,6.3,29.87,East,90,1.1,1.8,1,0.00,,,0.04,WUHU216HW,2013-08-02 10:50:00,
2013-08-02 05:55:00,63.7,6.1,29.87,SSE,158,1.1,1.8,1,0.00,,,0.04,WUHU216HW,2013-08-02 10:55:00,
2013-08-02 06:00:00,63.4,6.0,29.87,SE,135,1.8,2.5,1,0.00,,,0.04,WUHU216HW,2013-08-02 11:00:00,
2013-08-02 06:05:00,63.4,6.0,29.87,ESE,113,0.7,2.5,1,0.00,,,0.04,WUHU216HW,2013-08-02 11:05:00,
2013-08-02 06:10:00,63.4,6.0,29.88,East,90,0.9,2.0,1,0.00,,,0.04,WUHU216HW,2013-08-02 11:10:00,
2013-08-02 06:15:00,63.4,6.0,29.88,East,90,0.4,2.0,1,0.00,,,0.04,WUHU216HW,2013-08-02 11:15:00,
2013-08-02 06:20:00,63.2,5.8,29.88,East,90,0.7,1.1,1,0.00,,,0.04,WUHU216HW,2013-08-02 11:20:00,
2013-08-02 06:25:00,63.0,5.7,29.88,East,90,0.0,1.3,1,0.00,,,0.04,WUHU216HW,2013-08-02 11:25:00,
2013-08-02 06:30:00,63.0,5.7,29.87,ENE,68,1.3,1.3,1,0.00,,,0.04,WUHU216HW,2013-08-02 11:30:00,
2013-08-02 06:36:00,62.8,5.5,29.87,NNE,23,0.0,1.3,1,0.00,,,0.04,WUHU216HW,2013-08-02 11:36:00,
2013-08-02 06:41:00,62.5,5.2,29.87,NNE,23,0.7,0.9,1,0.00,,,0.04,WUHU216HW,2013-08-02 11:41:00,
2013-08-02 06:46:00,62.5,5.2,29.87,NNE,23,0.9,1.8,1,0.00,,,0.04,WUHU216HW,2013-08-02 11:46:00,
2013-08-02 06:51:00,62.6,5.4,29.87,North,0,2.7,2.7,1,0.00,,,0.04,WUHU216HW,2013-08-02 11:51:00,
2013-08-02 06:56:00,62.6,5.4,29.87,NNE,23,1.1,2.7,1,0.00,,,0.04,WUHU216HW,2013-08-02 11:56:00,
2013-08-02 07:01:00,62.6,5.4,29.87,NNE,23,0.4,2.0,1,0.00,,,0.04,WUHU216HW,2013-08-02 12:01:00,
2013-08-02 07:06:00,62.6,5.4,29.86,NNE,23,0.0,1.1,1,0.00,,,0.04,WUHU216HW,2013-08-02 12:06:00,
2013-08-02 07:11:00,62.6,5.4,29.86,NNE,23,0.2,0.4,1,0.00,,,0.04,WUHU216HW,2013-08-02 12:11:00,
2013-08-02 07:16:00,62.8,5.5,29.87,NNE,23,0.0,0.4,1,0.00,,,0.04,WUHU216HW,2013-08-02 12:16:00,
2013-08-02 07:21:00,62.8,5.5,29.87,NNE,23,0.0,0.4,1,0.00,,,0.04,WUHU216HW,2013-08-02 12:21:00,
2013-08-02 07:26:00,63.0,5.7,29.87,NE,45,0.0,0.2,1,0.00,,,0.04,WUHU216HW,2013-08-02 12:26:00,
2013-08-02 07:32:00,63.5,6.0,29.87,SE,135,0.7,0.9,1,0.00,,,0.04,WUHU216HW,2013-08-02 12:32:00,
2013-08-02 07:37:00,63.7,6.1,29.87,SE,135,0.9,1.1,1,0.00,,,0.04,WUHU216HW,2013-08-02 12:37:00,
2013-08-02 07:42:00,64.1,6.4,29.87,ESE,113,2.2,3.1,1,0.00,,,0.04,WUHU216HW,2013-08-02 12:42:00,
2013-08-02 07:47:00,64.3,6.6,29.87,East,90,3.1,3.1,1,0.00,,,0.04,WUHU216HW,2013-08-02 12:47:00,
2013-08-02 07:52:00,64.6,6.9,29.87,ESE,113,1.3,3.8,1,0.00,,,0.04,WUHU216HW,2013-08-02 12:52:00,
2013-08-02 07:57:00,64.8,6.9,29.87,ENE,68,0.4,3.8,1,0.00,,,0.04,WUHU216HW,2013-08-02 12:57:00,
2013-08-02 08:02:00,65.3,7.4,29.88,East,90,3.4,3.4,1,0.00,,,0.04,WUHU216HW,2013-08-02 13:02:00,
2013-08-02 08:07:00,65.9,7.8,29.88,East,90,2.5,3.4,1,0.00,,,0.04,WUHU216HW,2013-08-02 13:07:00,
2013-08-02 08:12:00,66.2,8.1,29.87,East,90,1.6,3.6,1,0.00,,,0.04,WUHU216HW,2013-08-02 13:12:00,
2013-08-02 08:17:00,66.6,8.4,29.88,ENE,68,2.5,3.6,1,0.00,,,0.04,WUHU216HW,2013-08-02 13:17:00,
2013-08-02 08:22:00,67.1,8.8,29.88,East,90,2.9,4.3,1,0.00,,,0.04,WUHU216HW,2013-08-02 13:22:00,
2013-08-02 08:27:00,67.3,9.0,29.88,NE,45,2.5,4.3,1,0.00,,,0.04,WUHU216HW,2013-08-02 13:27:00,
2013-08-02 08:32:00,67.7,9.3,29.87,East,90,5.1,5.1,1,0.00,,,0.04,WUHU216HW,2013-08-02 13:32:00,
2013-08-02 08:37:00,68.0,9.5,29.88,East,90,2.5,5.4,1,0.00,,,0.04,WUHU216HW,2013-08-02 13:37:00,
2013-08-02 08:42:00,68.4,9.8,29.88,East,90,4.5,5.4,1,0.00,,,0.04,WUHU216HW,2013-08-02 13:42:00,
2013-08-02 08:47:00,68.8,10.1,29.87,ENE,68,3.4,5.8,1,0.00,,,0.04,WUHU216HW,2013-08-02 13:47:00,
2013-08-02 08:52:00,68.9,10.2,29.88,ENE,68,3.4,5.8,1,0.00,,,0.04,WUHU216HW,2013-08-02 13:52:00,
2013-08-02 08:57:00,69.5,10.5,29.88,East,90,4.9,5.4,1,0.00,,,0.04,WUHU216HW,2013-08-02 13:57:00,
2013-08-02 09:02:00,69.7,10.7,29.88,East,90,6.3,6.3,1,0.00,,,0.04,WUHU216HW,2013-08-02 14:02:00,
2013-08-02 09:07:00,69.8,10.8,29.89,ENE,68,2.7,6.3,1,0.00,,,0.04,WUHU216HW,2013-08-02 14:07:00,
2013-08-02 09:12:00,70.4,11.3,29.89,East,90,4.0,5.4,1,0.00,,,0.04,WUHU216HW,2013-08-02 14:12:00,
2013-08-02 09:18:00,70.7,11.5,29.89,NE,45,2.7,5.8,1,0.00,,,0.04,WUHU216HW,2013-08-02 14:18:00,
2013-08-02 09:23:00,71.1,11.8,29.89,ENE,68,2.5,5.8,1,0.00,,,0.04,WUHU216HW,2013-08-02 14:23:00,
2013-08-02 09:28:00,71.3,12.0,29.89,East,90,4.0,5.4,1,0.00,,,0.04,WUHU216HW,2013-08-02 14:28:00,
2013-08-02 09:33:00,71.6,12.2,29.90,East,90,6.5,6.5,1,0.00,,,0.04,WUHU216HW,2013-08-02 14:33:00,
2013-08-02 09:38:00,72.0,12.5,29.90,East,90,2.2,6.5,1,0.00,,,0.04,WUHU216HW,2013-08-02 14:38:00,
2013-08-02 09:43:00,72.5,13.0,29.90,East,90,4.3,5.6,1,0.00,,,0.04,WUHU216HW,2013-08-02 14:43:00,
2013-08-02 09:48:00,72.9,13.2,29.90,East,90,3.8,5.4,1,0.00,,,0.04,WUHU216HW,2013-08-02 14:48:00,
2013-08-02 09:53:00,73.3,13.5,29.90,East,90,3.4,5.4,1,0.00,,,0.04,WUHU216HW,2013-08-02 14:53:00,
2013-08-02 09:58:00,73.3,13.5,29.89,NE,45,3.6,5.4,1,0.00,,,0.04,WUHU216HW,2013-08-02 14:58:00,
2013-08-02 10:03:00,73.8,14.0,29.90,ESE,113,2.7,5.4,1,0.00,,,0.04,WUHU216HW,2013-08-02 15:03:00,
2013-08-02 10:08:00,74.2,14.2,29.90,NNE,23,0.7,5.4,1,0.00,,,0.04,WUHU216HW,2013-08-02 15:08:00,
2013-08-02 10:13:00,74.3,14.3,29.89,East,90,3.4,4.0,1,0.00,,,0.04,WUHU216HW,2013-08-02 15:13:00,
2013-08-02 10:18:00,74.7,14.6,29.89,ENE,68,2.5,6.0,1,0.00,,,0.04,WUHU216HW,2013-08-02 15:18:00,
2013-08-02 10:23:00,75.2,14.9,29.90,East,90,3.8,6.0,1,0.00,,,0.04,WUHU216HW,2013-08-02 15:23:00,
2013-08-02 10:28:00,76.5,15.9,29.89,East,90,2.2,4.0,1,0.00,,,0.04,WUHU216HW,2013-08-02 15:28:00,
2013-08-02 10:33:00,76.5,15.9,29.90,East,90,2.2,3.1,1,0.00,,,0.04,WUHU216HW,2013-08-02 15:33:00,
2013-08-02 10:35:00,76.5,15.9,29.90,East,90,2.2,2.2,1,0.00,,,0.04,WUHU216HW,2013-08-02 15:35:00,
2013-08-02 10:40:00,76.5,15.9,29.90,East,90,2.2,2.2,1,0.00,,,0.04,WUHU216HW,2013-08-02 15:40:00,
2013-08-02 10:45:00,77.9,17.0,29.90,North,0,0.0,2.2,1,0.00,,,0.04,WUHU216HW,2013-08-02 15:45:00,
2013-08-02 10:50:00,77.0,16.4,29.91,North,0,0.0,0.0,1,0.00,,,0.04,WUHU216HW,2013-08-02 15:50:00,
2013-08-02 10:55:00,76.9,16.2,29.91,North,0,0.0,0.0,1,0.00,,,0.04,WUHU216HW,2013-08-02 15:55:00,
2013-08-02 11:00:00,76.9,16.2,29.91,North,0,0.0,0.0,1,0.00,,,0.04,WUHU216HW,2013-08-02 16:00:00,
2013-08-02 11:05:00,77.2,16.5,29.91,North,0,0.0,0.0,1,0.00,,,0.04,WUHU216HW,2013-08-02 16:05:00,
2013-08-02 11:10:00,77.4,16.7,29.91,North,0,0.0,0.0,1,0.00,,,0.04,WUHU216HW,2013-08-02 16:10:00,
2013-08-02 11:15:00,77.9,17.0,29.92,North,0,0.0,0.0,1,0.00,,,0.04,WUHU216HW,2013-08-02 16:15:00,
2013-08-02 11:21:00,78.5,17.4,29.91,North,0,0.0,0.0,1,0.00,,,0.04,WUHU216HW,2013-08-02 16:21:00,
2013-08-02 11:26:00,78.7,17.6,29.92,North,0,0.0,0.0,1,0.00,,,0.04,WUHU216HW,2013-08-02 16:26:00,
2013-08-02 11:31:00,78.8,17.6,29.92,North,0,0.0,0.0,1,0.00,,,0.04,WUHU216HW,2013-08-02 16:31:00,
2013-08-02 11:36:00,78.7,17.6,29.92,North,0,0.0,0.0,1,0.00,,,0.04,WUHU216HW,2013-08-02 16:36:00,
2013-08-02 11:41:00,78.7,17.6,29.92,North,0,0.0,0.0,1,0.00,,,0.04,WUHU216HW,2013-08-02 16:41:00,
2013-08-02 11:46:00,79.2,17.9,29.91,North,0,0.0,0.0,1,0.00,,,0.04,WUHU216HW,2013-08-02 16:46:00,
2013-08-02 11:51:00,79.4,18.1,29.92,North,0,0.0,0.0,1,0.00,,,0.04,WUHU216HW,2013-08-02 16:51:00,
2013-08-02 11:56:00,79.7,18.4,29.92,North,0,0.0,0.0,1,0.00,,,0.04,WUHU216HW,2013-08-02 16:56:00,
2013-08-02 12:02:00,79.9,18.6,29.92,North,0,0.0,0.0,1,0.00,,,0.04,WUHU216HW,2013-08-02 17:02:00,
2013-08-02 12:07:00,79.9,18.6,29.92,North,0,0.0,0.0,1,0.00,,,0.04,WUHU216HW,2013-08-02 17:07:00,
2013-08-02 12:12:00,79.7,18.4,29.92,North,0,0.0,0.0,1,0.00,,,0.04,WUHU216HW,2013-08-02 17:12:00,
2013-08-02 12:17:00,79.6,18.2,29.93,North,0,0.0,0.0,1,0.00,,,0.04,WUHU216HW,2013-08-02 17:17:00,
2013-08-02 12:22:00,79.6,18.2,29.92,North,0,0.0,0.0,1,0.00,,,0.04,WUHU216HW,2013-08-02 17:22:00,
2013-08-02 12:27:00,79.9,18.6,29.92,North,0,0.0,0.0,1,0.00,,,0.04,WUHU216HW,2013-08-02 17:27:00,
2013-08-02 12:32:00,81.2,19.5,29.92,North,0,0.0,0.0,1,0.00,,,0.04,WUHU216HW,2013-08-02 17:32:00,
2013-08-02 12:37:00,81.4,19.6,29.92,North,0,0.0,0.0,1,0.00,,,0.04,WUHU216HW,2013-08-02 17:37:00,
2013-08-02 12:42:00,81.0,19.4,29.92,North,0,0.0,0.0,1,0.00,,,0.04,WUHU216HW,2013-08-02 17:42:00,
2013-08-02 12:47:00,81.0,19.4,29.93,North,0,0.0,0.0,1,0.00,,,0.04,WUHU216HW,2013-08-02 17:47:00,
2013-08-02 12:52:00,80.8,19.3,29.92,North,0,0.0,0.0,1,0.00,,,0.04,WUHU216HW,2013-08-02 17:52:00,
2013-08-02 12:57:00,81.0,19.4,29.92,North,0,0.0,0.0,1,0.00,,,0.04,WUHU216HW,2013-08-02 17:57:00,
2013-08-02 13:02:00,81.5,19.8,29.92,North,0,0.0,0.0,1,0.00,,,0.04,WUHU216HW,2013-08-02 18:02:00,
2013-08-02 13:07:00,81.4,19.6,29.93,North,0,0.0,0.0,1,0.00,,,0.04,WUHU216HW,2013-08-02 18:07:00,
2013-08-02 13:12:00,81.2,19.5,29.93,North,0,0.0,0.0,1,0.00,,,0.04,WUHU216HW,2013-08-02 18:12:00,
2013-08-02 13:17:00,81.7,20.0,29.93,North,0,0.0,0.0,1,0.00,,,0.04,WUHU216HW,2013-08-02 18:17:00,
2013-08-02 13:22:00,81.7,20.0,29.92,North,0,0.0,0.0,3,0.00,,,0.04,WUHU216HW,2013-08-02 18:22:00,
2013-08-02 13:27:00,81.5,19.8,29.92,North,0,0.0,0.0,2,0.00,,,0.04,WUHU216HW,2013-08-02 18:27:00,
2013-08-02 13:32:00,82.4,20.5,29.92,North,0,0.0,0.0,1,0.00,,,0.04,WUHU216HW,2013-08-02 18:32:00,
2013-08-02 13:37:00,83.2,21.1,29.91,North,0,0.0,0.0,5,0.00,,,0.04,WUHU216HW,2013-08-02 18:37:00,
2013-08-02 13:42:00,82.8,20.8,29.91,North,0,0.0,0.0,6,0.00,,,0.04,WUHU216HW,2013-08-02 18:42:00,
2013-08-02 13:47:00,82.6,20.6,29.92,North,0,0.0,0.0,5,0.00,,,0.04,WUHU216HW,2013-08-02 18:47:00,
2013-08-02 13:52:00,83.5,21.2,29.91,North,0,0.0,0.0,1,0.00,,,0.04,WUHU216HW,2013-08-02 18:52:00,
2013-08-02 13:57:00,84.8,22.2,29.91,North,0,0.0,0.0,3,0.00,,,0.04,WUHU216HW,2013-08-02 18:57:00,
2013-08-02 14:03:00,85.0,22.3,29.91,North,0,0.0,0.0,7,0.00,,,0.04,WUHU216HW,2013-08-02 19:03:00,
2013-08-02 14:08:00,85.5,22.8,29.90,North,0,0.0,0.0,7,0.00,,,0.04,WUHU216HW,2013-08-02 19:08:00,
2013-08-02 14:13:00,85.7,26.4,29.90,North,0,0.0,0.0,12,0.00,,,0.04,WUHU216HW,2013-08-02 19:13:00,
2013-08-02 14:18:00,85.5,27.9,29.90,North,0,0.0,0.0,13,0.00,,,0.04,WUHU216HW,2013-08-02 19:18:00,
2013-08-02 14:23:00,84.8,25.7,29.90,North,0,0.0,0.0,12,0.00,,,0.04,WUHU216HW,2013-08-02 19:23:00,
2013-08-02 14:27:00,85.1,22.5,29.90,North,0,0.0,0.0,8,0.00,,,0.04,WUHU216HW,2013-08-02 19:27:00,
2013-08-02 14:33:00,86.6,23.7,29.90,North,0,0.0,0.0,8,0.00,,,0.04,WUHU216HW,2013-08-02 19:33:00,
2013-08-02 14:38:00,88.2,34.7,29.90,North,0,0.0,0.0,15,0.00,,,0.04,WUHU216HW,2013-08-02 19:38:00,
2013-08-02 14:43:00,89.1,46.4,29.90,North,0,0.0,0.0,23,0.00,,,0.04,WUHU216HW,2013-08-02 19:43:00,
2013-08-02 14:48:00,88.6,46.8,29.90,North,0,0.0,0.0,24,0.00,,,0.04,WUHU216HW,2013-08-02 19:48:00,
2013-08-02 14:53:00,87.8,45.1,29.90,North,0,0.0,0.0,23,0.00,,,0.04,WUHU216HW,2013-08-02 19:53:00,
2013-08-02 14:58:00,88.0,43.1,29.89,North,0,0.0,0.0,21,0.00,,,0.04,WUHU216HW,2013-08-02 19:58:00,
2013-08-02 15:03:00,88.4,52.0,29.89,North,0,0.0,0.0,29,0.00,,,0.04,WUHU216HW,2013-08-02 20:03:00,
2013-08-02 15:08:00,87.1,44.5,29.90,North,0,0.0,0.0,23,0.00,,,0.04,WUHU216HW,2013-08-02 20:08:00,
2013-08-02 15:09:00,87.1,37.9,29.90,North,0,0.0,0.0,18,0.00,,,0.04,WUHU216HW,2013-08-02 20:09:00,
2013-08-02 15:14:00,89.3,45.3,29.89,North,0,0.0,0.0,22,0.00,,,0.04,WUHU216HW,2013-08-02 20:14:00,
2013-08-02 15:19:00,90.9,54.2,29.90,North,0,0.0,0.0,29,0.00,,,0.04,WUHU216HW,2013-08-02 20:19:00,
2013-08-02 15:24:00,92.0,58.6,29.90,North,0,0.0,0.0,33,0.00,,,0.04,WUHU216HW,2013-08-02 20:24:00,
2013-08-02 15:29:00,91.1,61.8,29.90,North,0,0.0,0.0,38,0.00,,,0.04,WUHU216HW,2013-08-02 20:29:00,
2013-08-02 15:34:00,90.4,59.6,29.90,North,0,0.0,0.0,36,0.00,,,0.04,WUHU216HW,2013-08-02 20:34:00,
2013-08-02 15:39:00,89.6,55.8,29.90,North,0,0.0,0.0,32,0.00,,,0.04,WUHU216HW,2013-08-02 20:39:00,
2013-08-02 15:44:00,90.4,53.7,29.90,North,0,0.0,0.0,29,0.00,,,0.04,WUHU216HW,2013-08-02 20:44:00,
2013-08-02 15:49:00,92.0,61.0,29.90,North,0,0.0,0.0,36,0.00,,,0.04,WUHU216HW,2013-08-02 20:49:00,
2013-08-02 15:55:00,91.3,64.2,29.90,North,0,0.0,0.0,41,0.00,,,0.04,WUHU216HW,2013-08-02 20:55:00,
2013-08-02 16:00:00,91.1,62.7,29.90,North,0,0.0,0.0,39,0.00,,,0.04,WUHU216HW,2013-08-02 21:00:00,
2013-08-02 16:05:00,92.3,61.3,29.90,North,0,0.0,0.0,36,0.00,,,0.04,WUHU216HW,2013-08-02 21:05:00,
2013-08-02 16:10:00,93.6,61.7,29.90,North,0,0.0,0.0,35,0.00,,,0.04,WUHU216HW,2013-08-02 21:10:00,
2013-08-02 16:15:00,94.9,67.5,29.90,North,0,0.0,0.0,41,0.00,,,0.04,WUHU216HW,2013-08-02 21:15:00,
2013-08-02 16:20:00,95.2,68.5,29.90,North,0,0.0,0.0,42,0.00,,,0.04,WUHU216HW,2013-08-02 21:20:00,
2013-08-02 16:25:00,93.4,66.8,29.90,North,0,0.0,0.0,42,0.00,,,0.04,WUHU216HW,2013-08-02 21:25:00,
2013-08-02 16:30:00,93.8,66.5,29.90,North,0,0.0,0.0,41,0.00,,,0.04,WUHU216HW,2013-08-02 21:30:00,
2013-08-02 16:35:00,94.1,66.8,29.90,North,0,0.0,0.0,41,0.00,,,0.04,WUHU216HW,2013-08-02 21:35:00,
2013-08-02 16:40:00,92.9,65.7,29.91,North,0,0.0,0.0,41,0.00,,,0.04,WUHU216HW,2013-08-02 21:40:00,
2013-08-02 16:45:00,91.6,63.9,29.91,North,0,0.0,0.0,40,0.00,,,0.04,WUHU216HW,2013-08-02 21:45:00,
2013-08-02 16:50:00,90.5,62.1,29.91,North,0,0.0,0.0,39,0.00,,,0.04,WUHU216HW,2013-08-02 21:50:00,
2013-08-02 16:55:00,89.5,60.4,29.91,North,0,0.0,0.0,38,0.00,,,0.04,WUHU216HW,2013-08-02 21:55:00,
2013-08-02 17:00:00,88.6,58.1,29.91,North,0,0.0,0.0,36,0.00,,,0.04,WUHU216HW,2013-08-02 22:00:00,
2013-08-02 17:05:00,88.0,56.0,29.92,North,0,0.0,0.0,34,0.00,,,0.04,WUHU216HW,2013-08-02 22:05:00,
2013-08-02 17:10:00,87.3,53.7,29.92,North,0,0.0,0.0,32,0.00,,,0.04,WUHU216HW,2013-08-02 22:10:00,
2013-08-02 17:16:00,86.8,51.7,29.92,North,0,0.0,0.0,30,0.00,,,0.04,WUHU216HW,2013-08-02 22:16:00,
2013-08-02 17:21:00,85.7,46.5,29.91,North,0,0.0,0.0,26,0.00,,,0.04,WUHU216HW,2013-08-02 22:21:00,
2013-08-02 17:26:00,85.0,42.7,29.92,North,0,0.0,0.0,23,0.00,,,0.04,WUHU216HW,2013-08-02 22:26:00,
2013-08-02 17:31:00,84.4,37.4,29.92,North,0,0.0,0.0,19,0.00,,,0.04,WUHU216HW,2013-08-02 22:31:00,
2013-08-02 17:36:00,84.4,35.7,29.92,North,0,0.0,0.0,18,0.00,,,0.04,WUHU216HW,2013-08-02 22:36:00,
2013-08-02 17:41:00,84.6,32.3,29.91,North,0,0.0,0.0,16,0.00,,,0.04,WUHU216HW,2013-08-02 22:41:00,
2013-08-02 17:46:00,85.5,33.0,29.91,North,0,0.0,0.0,16,0.00,,,0.04,WUHU216HW,2013-08-02 22:46:00,
2013-08-02 17:51:00,87.1,27.6,29.91,North,0,0.0,0.0,12,0.00,,,0.04,WUHU216HW,2013-08-02 22:51:00,
2013-08-02 17:56:00,89.6,38.2,29.90,North,0,0.0,0.0,17,0.00,,,0.04,WUHU216HW,2013-08-02 22:56:00,
2013-08-02 18:01:00,91.4,53.6,29.90,North,0,0.0,0.0,28,0.00,,,0.04,WUHU216HW,2013-08-02 23:01:00,
2013-08-02 18:06:00,93.6,60.9,29.90,North,0,0.0,0.0,34,0.00,,,0.04,WUHU216HW,2013-08-02 23:06:00,
2013-08-02 18:11:00,94.7,64.2,29.90,North,0,0.0,0.0,37,0.00,,,0.04,WUHU216HW,2013-08-02 23:11:00,
2013-08-02 18:17:00,95.8,67.6,29.89,North,0,0.0,0.0,40,0.00,,,0.04,WUHU216HW,2013-08-02 23:17:00,
2013-08-02 18:22:00,96.3,69.4,29.89,North,0,0.0,0.0,42,0.00,,,0.04,WUHU216HW,2013-08-02 23:22:00,
2013-08-02 18:27:00,95.9,69.1,29.89,North,0,0.0,0.0,42,0.00,,,0.04,WUHU216HW,2013-08-02 23:27:00,
2013-08-02 18:32:00,95.4,68.6,29.89,North,0,0.0,0.0,42,0.00,,,0.04,WUHU216HW,2013-08-02 23:32:00,
2013-08-02 18:37:00,95.9,69.1,29.89,North,0,0.0,0.0,42,0.00,,,0.04,WUHU216HW,2013-08-02 23:37:00,
2013-08-02 18:42:00,95.8,69.6,29.89,North,0,0.0,0.0,43,0.00,,,0.04,WUHU216HW,2013-08-02 23:42:00,
2013-08-02 18:47:00,94.9,68.8,29.89,North,0,0.0,0.0,43,0.00,,,0.04,WUHU216HW,2013-08-02 23:47:00,
2013-08-02 18:52:00,95.0,68.3,29.89,North,0,0.0,0.0,42,0.00,,,0.04,WUHU216HW,2013-08-02 23:52:00,
2013-08-02 18:57:00,95.0,68.3,29.90,North,0,0.0,0.0,42,0.00,,,0.04,WUHU216HW,2013-08-02 23:57:00,
2013-08-02 19:02:00,92.5,66.6,29.90,North,0,0.0,0.0,43,0.00,,,0.04,WUHU216HW,2013-08-03 00:02:00,
2013-08-02 19:07:00,90.0,63.7,29.90,North,0,0.0,0.0,42,0.00,,,0.04,WUHU216HW,2013-08-03 00:07:00,
2013-08-02 19:12:00,90.0,63.7,29.90,North,0,0.0,0.0,42,0.00,,,0.04,WUHU216HW,2013-08-03 00:12:00,
2013-08-02 19:17:00,90.0,63.7,29.90,North,0,0.0,0.0,42,0.00,,,0.04,WUHU216HW,2013-08-03 00:17:00,
2013-08-02 19:39:00,85.1,51.1,29.91,North,0,0.0,0.0,31,0.00,,,0.04,WUHU216HW,2013-08-03 00:39:00,
2013-08-02 19:45:00,85.1,51.1,29.91,North,0,0.0,0.0,31,0.00,,,0.04,WUHU216HW,2013-08-03 00:45:00,
2013-08-02 20:00:00,81.7,39.0,29.92,North,0,0.0,0.0,22,0.00,,,0.04,WUHU216HW,2013-08-03 01:00:00,
2013-08-02 20:05:00,81.7,39.0,29.92,North,0,0.0,0.0,22,0.00,,,0.04,WUHU216HW,2013-08-03 01:05:00,
2013-08-02 20:30:00,79.6,18.2,29.93,North,0,0.0,0.0,10,0.00,,,0.04,WUHU216HW,2013-08-03 01:30:00,
2013-08-02 20:35:00,79.6,18.2,29.93,North,0,0.0,0.0,10,0.00,,,0.04,WUHU216HW,2013-08-03 01:35:00,
2013-08-02 21:00:00,76.7,16.1,29.93,North,0,0.0,0.0,1,0.00,,,0.04,WUHU216HW,2013-08-03 02:00:00,
2013-08-02 21:05:00,76.7,16.1,29.93,North,0,0.0,0.0,1,0.00,,,0.04,WUHU216HW,2013-08-03 02:05:00,
2013-08-02 21:30:00,74.2,14.2,29.95,North,0,0.0,0.0,1,0.00,,,0.04,WUHU216HW,2013-08-03 02:30:00,
2013-08-02 21:35:00,74.2,14.2,29.95,North,0,0.0,0.0,1,0.00,,,0.04,WUHU216HW,2013-08-03 02:35:00,
2013-08-02 22:00:00,73.1,13.4,29.96,North,0,0.0,0.0,1,0.00,,,0.04,WUHU216HW,2013-08-03 03:00:00,
2013-08-02 22:05:00,73.1,13.4,29.96,North,0,0.0,0.0,1,0.00,,,0.04,WUHU216HW,2013-08-03 03:05:00,
2013-08-02 22:30:00,71.5,12.1,29.98,North,0,0.0,0.0,1,0.00,,,0.04,WUHU216HW,2013-08-03 03:30:00,
2013-08-02 22:35:00,71.5,12.1,29.98,North,0,0.0,0.0,1,0.00,,,0.04,WUHU216HW,2013-08-03 03:35:00,
2013-08-02 23:00:00,69.3,10.5,29.98,North,0,0.0,0.0,1,0.00,,,0.04,WUHU216HW,2013-08-03 04:00:00,
2013-08-02 23:01:00,69.3,10.5,29.98,North,0,0.0,0.0,1,0.00,,,0.04,WUHU216HW,2013-08-03 04:01:00,
2013-08-02 23:02:00,69.3,10.5,29.98,North,0,0.0,0.0,1,0.00,,,0.04,WUHU216HW,2013-08-03 04:02:00,
2013-08-02 23:04:00,69.3,10.5,29.98,North,0,0.0,0.0,1,0.00,,,0.04,WUHU216HW,2013-08-03 04:04:00,
2013-08-02 23:09:00,69.3,10.5,29.98,North,0,0.0,0.0,1,0.00,,,0.04,WUHU216HW,2013-08-03 04:09:00,
2013-08-02 23:30:00,67.3,9.0,29.99,North,0,0.0,0.0,1,0.00,,,0.04,WUHU216HW,2013-08-03 04:30:00,
2013-08-02 23:35:00,67.3,9.0,29.99,North,0,0.0,0.0,1,0.00,,,0.04,WUHU216HW,2013-08-03 04:35:00,